createdAt,value
2022-10-01T00:04:37.606Z,100.00
2022-10-01T00:09:40.288Z,100.00
2022-10-01T00:14:42.916Z,100.00
2022-10-01T00:19:45.698Z,100.00
2022-10-01T00:24:48.235Z,100.00
2022-10-01T00:29:50.905Z,100.00
2022-10-01T00:34:53.809Z,100.00
2022-10-01T00:39:56.379Z,100.00
2022-10-01T00:45:01.701Z,100.00
2022-10-01T00:50:17.628Z,100.00
2022-10-01T00:55:26.789Z,100.00
2022-10-01T01:00:30.412Z,100.00
2022-10-01T01:05:32.979Z,100.00
2022-10-01T01:11:00.101Z,100.00
2022-10-01T01:16:24.218Z,100.00
2022-10-01T01:21:34.168Z,100.00
2022-10-01T01:26:58.919Z,100.00
2022-10-01T01:32:13.994Z,100.00
2022-10-01T01:37:22.726Z,100.00
2022-10-01T01:42:37.874Z,100.00
2022-10-01T01:47:42.295Z,100.00
2022-10-01T01:52:44.988Z,100.00
2022-10-01T01:57:47.734Z,100.00
2022-10-01T02:02:53.949Z,100.00
2022-10-01T02:08:21.043Z,100.00
2022-10-01T02:13:35.212Z,100.00
2022-10-01T02:19:03.777Z,100.00
2022-10-01T02:24:28.197Z,100.00
2022-10-01T02:29:32.164Z,100.00
2022-10-01T02:34:34.695Z,100.00
2022-10-01T02:39:41.065Z,100.00
2022-10-01T02:44:45.802Z,100.00
2022-10-01T02:49:49.935Z,100.00
2022-10-01T02:54:59.131Z,100.00
2022-10-01T03:00:07.058Z,100.00
2022-10-01T03:05:09.657Z,100.00
2022-10-01T03:10:13.329Z,100.00
2022-10-01T03:15:19.364Z,100.00
2022-10-01T03:20:22.587Z,100.00
2022-10-01T03:25:25.630Z,100.00
2022-10-01T03:30:28.661Z,100.00
2022-10-01T03:35:32.296Z,100.00
2022-10-01T03:40:38.995Z,100.00
2022-10-01T03:45:41.618Z,100.00
2022-10-01T03:50:53.426Z,100.00
2022-10-01T03:55:56.012Z,100.00
2022-10-01T04:01:00.668Z,100.00
2022-10-01T04:06:03.574Z,100.00
2022-10-01T04:11:07.237Z,100.00
2022-10-01T04:16:10.375Z,100.00
2022-10-01T04:21:13.033Z,100.00
2022-10-01T04:26:15.559Z,100.00
2022-10-01T04:31:28.056Z,100.00
2022-10-01T04:36:31.241Z,100.00
2022-10-01T04:41:34.067Z,100.00
2022-10-01T04:46:37.211Z,100.00
2022-10-01T04:51:39.932Z,100.00
2022-10-01T04:56:42.530Z,100.00
2022-10-01T05:01:46.222Z,100.00
2022-10-01T05:06:48.914Z,100.00
2022-10-01T05:11:52.220Z,100.00
2022-10-01T05:16:54.896Z,100.00
2022-10-01T05:21:57.632Z,100.00
2022-10-01T05:27:00.214Z,100.00
2022-10-01T05:32:05.476Z,100.00
2022-10-01T05:37:08.160Z,100.00
2022-10-01T05:42:10.917Z,100.00
2022-10-01T05:47:14.848Z,100.00
2022-10-01T05:52:17.527Z,100.00
2022-10-01T05:57:20.044Z,100.00
2022-10-01T06:02:22.742Z,100.00
2022-10-01T06:07:25.306Z,100.00
2022-10-01T06:12:28.532Z,100.00
2022-10-01T06:17:31.228Z,100.00
2022-10-01T06:22:34.088Z,100.00
2022-10-01T06:27:36.847Z,100.00
2022-10-01T06:32:39.533Z,100.00
2022-10-01T06:37:42.243Z,100.00
2022-10-01T06:42:55.990Z,100.00
2022-10-01T06:48:03.837Z,100.00
2022-10-01T06:53:06.510Z,100.00
2022-10-01T06:58:21.259Z,100.00
2022-10-01T07:03:24.442Z,100.00
2022-10-01T07:08:27.109Z,100.00
2022-10-01T07:13:30.758Z,100.00
2022-10-01T07:18:33.428Z,100.00
2022-10-01T07:23:36.013Z,100.00
2022-10-01T07:28:38.733Z,100.00
2022-10-01T07:33:41.700Z,100.00
2022-10-01T07:38:45.972Z,100.00
2022-10-01T07:43:49.923Z,100.00
2022-10-01T07:48:52.754Z,100.00
2022-10-01T07:53:55.549Z,99.44
2022-10-01T07:58:59.180Z,98.71
2022-10-01T08:04:01.904Z,98.17
2022-10-01T08:09:06.406Z,98.20
2022-10-01T08:14:09.099Z,97.63
2022-10-01T08:19:15.473Z,97.30
2022-10-01T08:24:18.079Z,96.35
2022-10-01T08:29:20.715Z,95.86
2022-10-01T08:34:23.629Z,94.48
2022-10-01T08:39:26.196Z,93.57
2022-10-01T08:44:32.865Z,92.54
2022-10-01T08:49:47.587Z,90.81
2022-10-01T08:54:59.174Z,90.13
2022-10-01T09:00:04.495Z,90.38
2022-10-01T09:05:24.842Z,90.35
2022-10-01T09:11:06.579Z,89.43
2022-10-01T09:16:18.239Z,89.76
2022-10-01T09:21:37.030Z,89.29
2022-10-01T09:26:48.889Z,89.59
2022-10-01T09:31:53.950Z,89.52
2022-10-01T09:37:14.899Z,90.18
2022-10-01T09:42:18.509Z,90.59
2022-10-01T09:47:25.830Z,90.82
2022-10-01T09:52:34.651Z,91.06
2022-10-01T09:57:50.640Z,91.25
2022-10-01T10:02:56.332Z,91.67
2022-10-01T10:08:15.206Z,92.74
2022-10-01T10:13:39.168Z,93.70
2022-10-01T10:18:42.724Z,93.46
2022-10-01T10:23:52.868Z,93.51
2022-10-01T10:28:59.002Z,94.25
2022-10-01T10:34:08.425Z,94.73
2022-10-01T10:39:30.800Z,95.32
2022-10-01T10:44:42.421Z,95.62
2022-10-01T10:49:54.684Z,95.88
2022-10-01T10:54:59.487Z,95.88
2022-10-01T11:00:04.957Z,95.52
2022-10-01T11:05:20.619Z,95.50
2022-10-01T11:10:45.558Z,95.61
2022-10-01T11:15:56.035Z,95.87
2022-10-01T11:21:05.220Z,95.85
2022-10-01T11:26:14.165Z,95.31
2022-10-01T11:32:02.988Z,95.27
2022-10-01T11:37:49.166Z,95.18
2022-10-01T11:43:00.112Z,95.22
2022-10-01T11:48:15.879Z,95.35
2022-10-01T11:53:25.220Z,95.45
2022-10-01T11:58:51.426Z,95.98
2022-10-01T12:03:54.917Z,95.74
2022-10-01T12:09:05.491Z,96.05
2022-10-01T12:14:16.937Z,95.72
2022-10-01T12:19:31.896Z,95.03
2022-10-01T12:24:40.373Z,94.38
2022-10-01T12:29:52.730Z,93.86
2022-10-01T12:35:11.544Z,92.83
2022-10-01T12:40:16.916Z,91.91
2022-10-01T12:45:22.198Z,92.04
2022-10-01T12:50:53.062Z,92.35
2022-10-01T12:56:12.520Z,93.00
2022-10-01T13:01:20.864Z,92.67
2022-10-01T13:06:41.843Z,92.90
2022-10-01T13:12:15.517Z,92.60
2022-10-01T13:17:34.900Z,92.03
2022-10-01T13:22:47.006Z,91.89
2022-10-01T13:28:02.250Z,92.08
2022-10-01T13:33:22.893Z,92.19
2022-10-01T13:38:47.746Z,92.54
2022-10-01T13:43:58.267Z,93.31
2022-10-01T13:49:07.634Z,94.46
2022-10-01T13:54:22.534Z,94.30
2022-10-01T13:59:34.382Z,94.15
2022-10-01T14:04:43.390Z,94.35
2022-10-01T14:09:50.494Z,94.71
2022-10-01T14:15:15.673Z,94.68
2022-10-01T14:20:22.316Z,94.90
2022-10-01T14:25:44.536Z,95.18
2022-10-01T14:31:06.021Z,95.31
2022-10-01T14:36:28.553Z,96.02
2022-10-01T14:41:35.101Z,96.19
2022-10-01T14:46:38.178Z,96.26
2022-10-01T14:51:51.599Z,96.84
2022-10-01T14:56:55.184Z,97.14
2022-10-01T15:02:00.448Z,97.38
2022-10-01T15:07:04.960Z,98.22
2022-10-01T15:12:08.831Z,98.20
2022-10-01T15:17:22.298Z,98.61
2022-10-01T15:22:29.813Z,98.89
2022-10-01T15:27:33.576Z,98.70
2022-10-01T15:32:36.341Z,98.67
2022-10-01T15:37:41.130Z,98.99
2022-10-01T15:43:14.781Z,99.29
2022-10-01T15:48:29.149Z,99.71
2022-10-01T15:53:34.049Z,99.99
2022-10-01T15:58:43.787Z,100.00
2022-10-01T16:04:05.499Z,100.00
2022-10-01T16:09:30.905Z,100.00
2022-10-01T16:14:36.914Z,100.00
2022-10-01T16:19:39.520Z,100.00
2022-10-01T16:24:45.684Z,100.00
2022-10-01T16:29:59.117Z,100.00
2022-10-01T16:35:15.455Z,100.00
2022-10-01T16:40:19.082Z,100.00
2022-10-01T16:45:27.959Z,100.00
2022-10-01T16:50:30.633Z,100.00
2022-10-01T16:55:36.640Z,100.00
2022-10-01T17:00:39.854Z,100.00
2022-10-01T17:05:43.679Z,100.00
2022-10-01T17:10:57.124Z,100.00
2022-10-01T17:16:01.003Z,100.00
2022-10-01T17:21:04.584Z,100.00
2022-10-01T17:26:08.654Z,100.00
2022-10-01T17:31:15.568Z,100.00
2022-10-01T17:36:20.351Z,100.00
2022-10-01T17:41:23.045Z,100.00
2022-10-01T17:46:25.621Z,100.00
2022-10-01T17:51:28.396Z,100.00
2022-10-01T17:56:32.896Z,100.00
2022-10-01T18:01:36.014Z,100.00
2022-10-01T18:06:39.974Z,99.90
2022-10-01T18:11:42.604Z,99.61
2022-10-01T18:16:45.283Z,100.00
2022-10-01T18:21:48.723Z,100.00
2022-10-01T18:26:51.706Z,100.00
2022-10-01T18:32:17.872Z,100.00
2022-10-01T18:37:45.828Z,100.00
2022-10-01T18:42:57.894Z,100.00
2022-10-01T18:48:18.628Z,100.00
2022-10-01T18:53:30.508Z,100.00
2022-10-01T18:58:52.587Z,100.00
2022-10-01T19:04:13.419Z,100.00
2022-10-01T19:09:28.030Z,100.00
2022-10-01T19:14:52.180Z,100.00
2022-10-01T19:20:04.689Z,100.00
2022-10-01T19:25:28.343Z,100.00
2022-10-01T19:30:41.499Z,100.00
2022-10-01T19:35:57.643Z,100.00
2022-10-01T19:41:08.381Z,100.00
2022-10-01T19:46:29.587Z,100.00
2022-10-01T19:51:45.595Z,100.00
2022-10-01T19:56:53.369Z,100.00
2022-10-01T20:02:10.530Z,100.00
2022-10-01T20:07:27.403Z,100.00
2022-10-01T20:13:13.963Z,100.00
2022-10-01T20:18:46.139Z,100.00
2022-10-01T20:23:55.980Z,100.00
2022-10-01T20:29:13.545Z,100.00
2022-10-01T20:34:27.614Z,100.00
2022-10-01T20:39:48.396Z,100.00
2022-10-01T20:44:53.143Z,100.00
2022-10-01T20:50:09.584Z,100.00
2022-10-01T20:55:18.301Z,100.00
2022-10-01T21:00:23.641Z,100.00
2022-10-01T21:05:36.618Z,100.00
2022-10-01T21:10:51.122Z,100.00
2022-10-01T21:16:24.672Z,100.00
2022-10-01T21:21:57.206Z,100.00
2022-10-01T21:27:26.600Z,100.00
2022-10-01T21:32:47.753Z,100.00
2022-10-01T21:38:28.169Z,100.00
2022-10-01T21:44:03.120Z,100.00
2022-10-01T21:49:24.463Z,100.00
2022-10-01T21:54:45.286Z,100.00
2022-10-01T22:00:08.770Z,100.00
2022-10-01T22:05:42.037Z,100.00
2022-10-01T22:10:48.448Z,100.00
2022-10-01T22:15:56.653Z,100.00
2022-10-01T22:21:01.552Z,100.00
2022-10-01T22:26:13.283Z,100.00
2022-10-01T22:31:18.244Z,100.00
2022-10-01T22:36:36.032Z,100.00
2022-10-01T22:41:45.259Z,99.17
2022-10-01T22:47:06.900Z,99.07
2022-10-01T22:52:23.772Z,98.92
2022-10-01T22:57:48.269Z,98.43
2022-10-01T23:03:12.211Z,97.86
2022-10-01T23:08:43.502Z,96.59
2022-10-01T23:14:07.043Z,96.61
2022-10-01T23:19:35.148Z,95.99
2022-10-01T23:25:19.038Z,95.42
2022-10-01T23:30:21.986Z,95.78
2022-10-01T23:35:48.767Z,95.87
2022-10-01T23:40:55.753Z,96.04
2022-10-01T23:46:10.712Z,95.66
2022-10-01T23:51:21.611Z,95.76
2022-10-01T23:56:50.916Z,95.87
